Terminal Aerodrome Forecast
Issued by NWS

Current Version | Previous Version | Text Only | Print | Product List | Glossary On
Versions: 1 2 3 4 5 6 7 8 9 10 11 12 13 14 15
153
FTPA31 PHFO 221100
TAFPPG
TAF
NSTU 221136Z 2212/2312 11017KT P6SM VCSH SCT015 BKN035
      TEMPO 2212/2216 5SM -SHRA BR BKN015=

USA.gov is the U.S. government's official web portal to all federal, state and local government web resources and services.